Latest Coastal Weather Observations for Laverton

IDV60701

Issued at 1:12 am EST Thursday 3 September 2026 (issued every 10 minutes, with the page automatically refreshed every 10 minutes)

About coastal observations | Map of coastal stations | Coastal observations for VIC | Marine services | Other Formats
Station Details ID: 087031 Name: LAVERTON RAAF Lat: -37.86 Lon: 144.76 Height: 20.1 m
Data from the previous 72 hours. | See also: Recent months at Laverton
Date/Time
EST
Wind Sea
Height
m
Swell Vis
km
Cloud Weather Temp
°C
Press
MSL
hPa
Rain since
9am
mm
Dir  Spd
kts
Gust
kts
Height
m
Period
s
Dir
03/01:00am NNW 8 11 - - - - 10 Clear - 10.0 1010.7 0.0
03/12:30am N 6 8 - - - - 10 - - 9.6 1010.7 0.0
03/12:00am NNW 5 7 - - - - 10 - - 9.5 1011.1 0.0
 
Date/Time
EST
Wind Sea
Height
m
Swell Vis
km
Cloud Weather Temp
°C
Press
MSL
hPa
Rain since
9am
mm
Dir  Spd
kts
Gust
kts
Height
m
Period
s
Dir
02/11:30pm NNW 6 8 - - - - 10 - - 10.6 1011.2 0.0
02/11:00pm NNW 6 9 - - - - 10 - - 10.7 1011.6 0.0
02/10:30pm NW 6 9 - - - - 10 - - 10.5 1011.8 0.0
02/10:00pm NW 9 13 - - - - 10 - - 11.0 1012.2 0.0
02/09:30pm NW 8 11 - - - - 10 - - 11.6 1012.0 0.0
02/09:00pm NNW 8 11 - - - - 10 - - 12.3 1012.3 0.0
02/08:30pm NW 8 10 - - - - 10 Partly cloudy - 13.4 1012.2 0.0
02/08:00pm NW 9 13 - - - - 10 Partly cloudy - 13.7 1012.1 0.0
02/07:30pm NE 4 5 - - - - 10 Cloudy - 12.6 1012.0 0.0
02/07:00pm ENE 4 5 - - - - 10 Partly cloudy - 12.5 1011.6 0.0
02/06:30pm ENE 4 4 - - - - 10 Mostly clear - 12.3 1011.4 0.0
02/06:00pm ENE 5 6 - - - - 10 - - 13.1 1011.4 0.0
02/05:30pm SSW 4 9 - - - - 10 Cloudy - 15.0 1011.1 0.0
02/05:00pm W 7 10 - - - - 10 Cloudy - 16.9 1011.1 0.0
02/04:30pm W 8 11 - - - - 10 - - 17.0 1011.3 0.0
02/04:00pm WNW 9 14 - - - - 10 - - 17.3 1011.7 0.0
02/03:30pm W 9 13 - - - - 10 Mostly clear - 17.1 1012.1 0.0
02/03:00pm W 9 14 - - - - 10 Partly cloudy - 17.4 1012.2 0.0
02/02:30pm W 6 10 - - - - 10 Partly cloudy - 16.1 1012.4 0.0
02/02:00pm WNW 6 10 - - - - 10 Cloudy - 16.2 1012.7 0.0
02/01:30pm SW 5 9 - - - - 10 Cloudy - 16.6 1012.9 0.0
02/01:00pm WSW 7 10 - - - - 10 Cloudy - 15.5 1013.5 0.0
02/12:30pm W 9 13 - - - - 10 Partly cloudy - 15.6 1014.2 0.0
02/12:00pm W 8 13 - - - - 10 Mostly cloudy - 15.5 1014.6 0.0
02/11:30am W 8 14 - - - - 10 Cloudy - 14.6 1014.9 0.0
02/11:00am W 9 15 - - - - 10 Partly cloudy - 14.6 1015.2 0.0
02/10:30am W 11 16 - - - - 10 Mostly clear - 13.8 1015.4 0.0
02/10:00am WSW 12 16 - - - - 10 Mostly clear - 14.2 1015.6 0.0
02/09:30am WSW 11 17 - - - - 10 Mostly clear - 13.6 1015.8 0.0
02/09:00am WSW 11 15 - - - - 10 Partly cloudy - 12.9 1015.7 0.2
02/08:30am WSW 10 15 - - - - 10 Cloudy - 12.9 1015.6 0.2
02/08:00am WSW 8 11 - - - - 10 Partly cloudy - 12.3 1015.5 0.2
02/07:30am SW 10 14 - - - - 10 Cloudy - 12.2 1015.0 0.2
02/07:00am WSW 7 10 - - - - 10 Cloudy - 11.8 1014.9 0.2
02/06:30am WSW 8 11 - - - - 10 Partly cloudy - 12.1 1014.5 0.2
02/06:00am WSW 9 12 - - - - 10 Mostly clear - 11.8 1014.1 0.2
02/05:30am WSW 9 13 - - - - 10 Mostly clear - 12.2 1014.0 0.2
02/05:00am WSW 8 11 - - - - 10 Cloudy - 12.5 1013.8 0.2
02/04:30am WSW 10 15 - - - - 10 Mostly clear - 12.6 1013.4 0.2
02/04:00am WSW 11 16 - - - - 10 Mostly clear - 12.8 1013.0 0.2
02/03:30am WSW 12 17 - - - - 10 Partly cloudy - 13.8 1013.0 0.2
02/03:00am NNW 6 8 - - - - 10 Cloudy - 15.4 1012.4 0.2
02/02:30am NW 6 10 - - - - 10 Partly cloudy - 15.5 1012.5 0.2
02/02:00am NNW 7 11 - - - - 10 Cloudy - 15.6 1012.6 0.2
02/01:30am NNW 3 4 - - - - 10 Partly cloudy - 14.8 1012.8 0.2
02/01:00am NW 7 10 - - - - 10 Mostly clear - 14.8 1012.6 0.2
02/12:30am NW 8 11 - - - - 10 Mostly clear - 15.8 1012.5 0.2
02/12:00am NW 9 12 - - - - 10 Cloudy Showers 16.1 1012.5 0.2
 
Date/Time
EST
Wind Sea
Height
m
Swell Vis
km
Cloud Weather Temp
°C
Press
MSL
hPa
Rain since
9am
mm
Dir  Spd
kts
Gust
kts
Height
m
Period
s
Dir
01/11:30pm NW 12 15 - - - - 10 Partly cloudy - 16.8 1012.6 0.2
01/11:00pm NW 14 19 - - - - 10 Partly cloudy - 17.0 1012.6 0.2
01/10:30pm NW 12 18 - - - - 10 Mostly clear - 17.4 1012.7 0.2
01/10:00pm NNW 14 20 - - - - 10 Partly cloudy - 17.3 1012.6 0.2
01/09:30pm NNW 12 18 - - - - 10 Partly cloudy - 17.7 1012.5 0.2
01/09:00pm NNW 11 15 - - - - 10 Cloudy Rain 17.7 1012.6 0.2
01/08:30pm NNW 13 21 - - - - 10 Cloudy - 18.2 1012.3 0.2
01/08:00pm NNW 11 15 - - - - 10 Cloudy - 18.7 1012.4 0.2
01/07:30pm NNW 13 21 - - - - 10 Mostly clear - 19.4 1012.4 0.2
01/07:00pm N 9 13 - - - - 10 Mostly clear - 19.3 1012.6 0.2
01/06:30pm N 9 14 - - - - 10 Partly cloudy - 19.7 1012.7 0.2
01/06:00pm N 10 14 - - - - 10 Cloudy - 19.7 1013.2 0.2
01/05:30pm N 9 13 - - - - 10 Mostly clear - 19.9 1013.5 0.2
01/05:00pm NNW 11 15 - - - - 10 - - 20.2 1013.4 0.2
01/04:30pm NNW 11 17 - - - - 10 - - 20.0 1013.5 0.2
01/04:00pm NNW 17 24 - - - - 10 - - 20.4 1013.4 0.2
01/03:30pm NNW 14 21 - - - - 10 - - 20.4 1013.2 0.2
01/03:03pm NNW 18 26 - - - - 10 - - 20.9 1013.0 0.2
01/03:00pm NNW 17 26 - - - - 10 Mostly cloudy - 20.9 1012.9 0.2
01/02:30pm NNW 17 26 - - - - 10 - - 21.7 1013.2 0.2
01/02:00pm NNW 18 25 - - - - 10 - - 21.8 1014.0 0.2
01/01:55pm NNW 15 25 - - - - 10 - - 21.9 1013.9 0.2
01/01:40pm NNW 14 22 - - - - 10 - - 21.6 1014.2 0.2
01/01:30pm NNW 15 25 - - - - 10 - - 21.2 1014.6 0.2
01/01:24pm NNW 15 25 - - - - 10 - - 21.1 1014.8 0.2
01/01:02pm NNW 16 23 - - - - 10 - - 21.2 1015.3 0.0
01/01:00pm NNW 17 23 - - - - 10 - - 21.0 1015.3 0.0
01/12:43pm NNW 16 31 - - - - 10 - - 20.8 1015.4 0.0
01/12:30pm NNW 16 24 - - - - 10 - - 20.9 1015.9 0.0
01/12:22pm NNW 18 26 - - - - 10 - - 20.8 1016.0 0.0
01/12:00pm NNW 19 30 - - - - 10 - - 20.8 1016.4 0.0
01/11:51am NNW 15 28 - - - - 10 - - 20.9 1016.6 0.0
01/11:30am NNW 13 21 - - - - 10 - - 20.4 1017.0 0.0
01/11:00am N 13 21 - - - - 10 - - 19.9 1017.1 0.0
01/10:30am N 13 19 - - - - 10 - - 18.9 1017.6 0.0
01/10:00am NNE 14 21 - - - - 10 - - 17.1 1018.7 0.0
01/09:30am NNE 17 24 - - - - 10 - - 15.8 1018.8 0.0
01/09:00am N 13 19 - - - - 10 - - 15.5 1019.8 0.0
01/08:30am N 10 13 - - - - 10 - - 15.2 1020.3 0.0
01/08:00am N 3 7 - - - - 10 - - 13.7 1020.8 0.0
01/07:30am NNE 7 9 - - - - 10 - - 12.8 1020.8 0.0
01/07:00am NNE 7 11 - - - - 10 - - 12.0 1020.7 0.0
01/06:30am NNE 7 9 - - - - 10 - - 11.7 1020.6 0.0
01/06:00am NNE 8 12 - - - - 10 - - 12.1 1021.0 0.0
01/05:30am NNE 9 11 - - - - 10 - - 12.2 1021.0 0.0
01/05:00am NNE 8 11 - - - - 10 - - 12.4 1021.0 0.0
01/04:30am NNE 4 6 - - - - 10 - - 11.4 1021.4 0.0
01/04:00am N 6 8 - - - - 10 - - 11.7 1021.9 0.0
01/03:30am N 5 8 - - - - 10 - - 11.3 1022.2 0.0
01/03:00am N 6 7 - - - - 10 - - 10.7 1022.6 0.0
01/02:30am NNW 4 5 - - - - 10 - - 8.3 1023.1 0.0
01/02:00am NNW 5 6 - - - - 10 - - 9.3 1023.5 0.0
01/01:30am NW 5 7 - - - - 10 - - 9.1 1023.8 0.0
01/01:00am NNW 5 7 - - - - 10 - - 9.8 1024.0 0.0
01/12:30am N 2 4 - - - - 10 - - 7.5 1024.3 0.0
01/12:00am N 2 4 - - - - 10 - - 8.1 1024.9 0.0
 
Date/Time
EST
Wind Sea
Height
m
Swell Vis
km
Cloud Weather Temp
°C
Press
MSL
hPa
Rain since
9am
mm
Dir  Spd
kts
Gust
kts
Height
m
Period
s
Dir
31/11:30pm N 3 5 - - - - 10 - - 8.2 1025.4 0.0
31/11:00pm NNW 2 5 - - - - 10 - - 8.1 1025.8 0.0
31/10:30pm NW 3 4 - - - - 10 - - 8.8 1026.2 0.0
31/10:00pm NNW 6 7 - - - - 10 - - 9.3 1026.4 0.0
31/09:30pm ENE 3 4 - - - - 10 - - 9.7 1026.6 0.0
31/09:00pm ENE 3 4 - - - - 10 - - 9.8 1026.7 0.0
31/08:30pm ENE 4 5 - - - - 10 - - 10.7 1026.9 0.0
31/08:00pm ENE 3 4 - - - - 10 - - 10.3 1027.1 0.0
31/07:30pm CALM 0 0 - - - - 10 - - 9.8 1027.2 0.0
31/07:00pm SE 3 4 - - - - 10 - - 10.4 1027.2 0.0
31/06:30pm SE 3 4 - - - - 10 - - 11.1 1027.4 0.0
31/06:00pm SE 4 6 - - - - 10 - - 11.8 1027.4 0.0
31/05:30pm SE 5 6 - - - - 10 - - 12.9 1027.4 0.0
31/05:00pm ESE 5 6 - - - - 10 - - 14.0 1027.5 0.0
31/04:30pm ESE 5 6 - - - - 10 - - 14.8 1027.8 0.0
31/04:00pm E 5 7 - - - - 10 - - 15.1 1028.0 0.0
31/03:30pm ESE 5 7 - - - - 10 - - 15.0 1028.3 0.0
31/03:00pm ESE 5 8 - - - - 10 - - 15.4 1028.5 0.0
31/02:30pm SE 4 6 - - - - 10 - - 15.2 1029.2 0.0
31/02:00pm SE 5 8 - - - - 10 - - 14.3 1029.6 0.0
31/01:30pm SE 4 6 - - - - 10 - - 14.6 1030.1 0.0
31/01:00pm ESE 8 11 - - - - 10 - - 13.5 1030.6 0.0
31/12:30pm SSW 4 7 - - - - 10 - - 14.6 1031.0 0.0
31/12:00pm SW 7 9 - - - - 10 - - 13.7 1031.6 0.0
31/11:30am WSW 5 9 - - - - 10 - - 13.6 1032.0 0.0
31/11:00am S 5 7 - - - - 10 - - 13.0 1032.3 0.0
31/10:30am S 5 7 - - - - 10 Partly cloudy - 12.7 1032.5 0.0
31/10:00am W 4 6 - - - - 10 Cloudy - 11.8 1032.7 0.0
31/09:30am WSW 5 8 - - - - 10 Cloudy - 11.5 1032.7 0.0
31/09:00am WSW 4 6 - - - - 10 Cloudy - 11.1 1032.7 0.0
31/08:30am WSW 6 7 - - - - 10 Cloudy - 10.4 1032.8 0.0
31/08:00am W 5 8 - - - - 10 Cloudy - 9.9 1032.7 0.0
31/07:30am WSW 5 7 - - - - 10 Cloudy - 9.6 1032.6 0.0
31/07:00am W 5 7 - - - - 10 Cloudy - 9.3 1032.5 0.0
31/06:30am WSW 3 6 - - - - 10 Cloudy - 9.4 1032.4 0.0
31/06:00am W 4 6 - - - - 10 Cloudy - 9.7 1032.2 0.0
31/05:30am WSW 5 7 - - - - 10 Cloudy - 10.1 1032.2 0.0
31/05:00am WSW 4 5 - - - - 10 Cloudy - 10.2 1032.2 0.0
31/04:30am WSW 4 6 - - - - 10 Cloudy - 10.2 1032.2 0.0
31/04:00am WSW 6 8 - - - - 10 Cloudy - 10.3 1032.2 0.0
31/03:30am WSW 5 7 - - - - 10 Cloudy - 10.6 1032.5 0.0
31/03:00am WSW 5 6 - - - - 10 Cloudy - 10.9 1032.6 0.0
31/02:30am W 4 5 - - - - 10 Cloudy - 11.0 1032.7 0.0
31/02:00am CALM 0 0 - - - - 10 Cloudy - 10.9 1032.8 0.0
31/01:30am NW 3 5 - - - - 10 Cloudy - 10.7 1032.8 0.0

Other formats

Comma delimited format used in spreadsheet applications
http://www.bom.gov.au/fwo/IDV60701/IDV60701.94865.axf

JavaScript Object Notation format (JSON) in row-major order
http://www.bom.gov.au/fwo/IDV60701/IDV60701.94865.json

Data quality

Most of these data are generated automatically and are frequently updated. Quality checks on data are not normally performed. It is possible for incorrect values to appear. Refer to information at About Latest Weather Observations and please check the disclaimer before using these data.